Time;durP1;ratioP1;P1;durP2;ratioP2;P2;SDS_P1;SDS_P2;PMS_P1;PMS_P2;Temp;Humidity;BMP_temperature;BMP_pressure;BME280_temperature;BME280_humidity;BME280_pressure;Samples;Min_cycle;Max_cycle;Signal;HPM_P1;HPM_P2
2023/03/20 00:01:15;;;;;;;30.45;15.82;;;;;;;9.27;75.14;101789.47;7395269;19;20003;-59
2023/03/20 00:03:40;;;;;;;35.65;16.98;;;;;;;9.30;74.97;101784.00;7396022;19;20014;-59
2023/03/20 00:06:16;;;;;;;33.58;18.00;;;;;;;9.30;74.67;101787.50;7391215;19;20487;-59
2023/03/20 00:08:46;;;;;;;33.75;16.98;;;;;;;9.32;74.70;101788.25;7394210;19;20033;-59
2023/03/20 00:11:35;;;;;;;33.08;17.65;;;;;;;9.30;74.84;101784.84;7394574;19;20001;-58
2023/03/20 00:14:13;;;;;;;37.85;18.35;;;;;;;9.30;74.81;101795.47;7392934;19;20010;-59
2023/03/20 00:16:41;;;;;;;35.90;18.77;;;;;;;9.22;75.03;101797.72;7394801;19;20014;-58
2023/03/20 00:19:16;;;;;;;36.25;18.08;;;;;;;9.13;75.52;101798.25;7395830;19;20002;-58
2023/03/20 00:21:42;;;;;;;36.63;18.48;;;;;;;9.08;75.60;101798.53;7393376;19;20093;-58
2023/03/20 00:24:08;;;;;;;36.10;18.85;;;;;;;9.16;75.49;101793.63;7394838;19;20002;-58
2023/03/20 00:26:35;;;;;;;34.08;18.83;;;;;;;9.26;74.90;101795.75;7392652;19;20560;-59
2023/03/20 00:29:03;;;;;;;35.92;18.13;;;;;;;9.26;74.57;101798.38;7395317;19;20003;-58
2023/03/20 00:31:34;;;;;;;34.97;17.33;;;;;;;9.13;74.82;101788.50;7391136;19;20482;-58
2023/03/20 00:34:02;;;;;;;30.17;16.67;;;;;;;9.16;74.56;101803.38;7394182;19;20003;-59
2023/03/20 00:36:28;;;;;;;30.45;16.02;;;;;;;9.12;74.15;101793.91;7393167;19;20002;-59
2023/03/20 00:38:56;;;;;;;27.83;15.20;;;;;;;9.14;73.70;101787.56;7392546;19;20343;-58
2023/03/20 00:41:31;;;;;;;33.60;16.77;;;;;;;9.13;73.82;101793.78;7393964;19;20007;-58
2023/03/20 00:44:20;;;;;;;30.75;17.02;;;;;;;9.08;74.12;101792.38;7395236;19;20010;-59
2023/03/20 00:46:49;;;;;;;31.98;17.35;;;;;;;9.08;73.97;101795.03;7394676;19;20094;-58
2023/03/20 00:49:15;;;;;;;35.75;18.25;;;;;;;9.08;73.91;101793.22;7394118;19;20019;-58
2023/03/20 00:51:41;;;;;;;30.83;17.08;;;;;;;9.10;73.58;101796.63;7392654;19;20356;-59
2023/03/20 00:54:14;;;;;;;33.50;17.15;;;;;;;9.08;74.06;101787.06;7391736;19;20561;-59
2023/03/20 00:57:25;;;;;;;35.35;18.23;;;;;;;9.10;73.72;101801.06;7392490;19;20003;-59
2023/03/20 00:59:58;;;;;;;31.02;16.83;;;;;;;9.09;73.76;101796.72;7392345;19;20062;-58
2023/03/20 01:02:27;;;;;;;31.95;16.85;;;;;;;9.10;73.66;101793.13;7394552;19;20019;-59
2023/03/20 01:04:53;;;;;;;32.20;17.38;;;;;;;9.14;73.50;101797.28;7392704;19;20023;-59
2023/03/20 01:07:19;;;;;;;30.88;16.63;;;;;;;9.16;73.47;101800.72;7391692;19;20007;-60
2023/03/20 01:09:46;;;;;;;31.55;16.67;;;;;;;9.06;74.13;101800.41;7393581;19;20487;-60
2023/03/20 01:12:19;;;;;;;34.22;17.83;;;;;;;9.06;74.16;101802.19;7390513;19;20019;-59
2023/03/20 01:14:50;;;;;;;31.30;16.63;;;;;;;9.02;74.44;101804.19;7393496;19;20022;-59
2023/03/20 01:17:19;;;;;;;31.42;17.50;;;;;;;8.96;74.90;101801.91;7393327;19;20003;-59
2023/03/20 01:19:45;;;;;;;33.95;17.73;;;;;;;8.94;75.11;101809.94;7392918;19;20019;-59
2023/03/20 01:22:12;;;;;;;33.72;16.73;;;;;;;8.94;75.19;101809.06;7391099;19;19995;-59
2023/03/20 01:24:38;;;;;;;30.50;16.77;;;;;;;8.91;75.56;101810.13;7391504;19;20003;-59
2023/03/20 01:27:10;;;;;;;33.60;16.08;;;;;;;8.81;76.28;101816.03;7393618;19;20010;-59
2023/03/20 01:29:36;;;;;;;31.48;16.80;;;;;;;8.74;76.63;101820.81;7393524;19;19999;-59
2023/03/20 01:32:01;;;;;;;28.52;15.45;;;;;;;8.64;77.24;101823.13;7390876;19;20007;-58
2023/03/20 01:34:27;;;;;;;26.58;14.88;;;;;;;8.65;77.05;101821.38;7391457;19;19995;-58
2023/03/20 01:36:56;;;;;;;26.92;14.57;;;;;;;8.60;77.13;101824.25;7392718;19;20006;-58
2023/03/20 01:39:30;;;;;;;23.55;13.05;;;;;;;8.57;77.17;101831.50;7390833;19;20031;-59
2023/03/20 01:41:56;;;;;;;27.17;13.35;;;;;;;8.59;77.37;101832.28;7390761;19;20583;-59
2023/03/20 01:44:29;;;;;;;18.88;10.50;;;;;;;8.60;77.11;101832.19;7390825;19;20074;-59
2023/03/20 01:46:55;;;;;;;18.88;9.80;;;;;;;8.55;76.94;101825.47;7392889;19;20002;-59
2023/03/20 01:49:20;;;;;;;18.55;9.48;;;;;;;8.63;76.64;101836.47;7392449;19;20351;-58
2023/03/20 01:51:47;;;;;;;19.58;10.23;;;;;;;8.58;76.45;101834.09;7389089;19;20010;-58
2023/03/20 01:54:25;;;;;;;16.60;8.52;;;;;;;8.57;76.09;101835.03;7391742;19;20008;-58
2023/03/20 01:56:58;;;;;;;15.80;8.55;;;;;;;8.54;76.26;101837.00;7391753;19;20013;-58
2023/03/20 01:59:30;;;;;;;14.85;7.57;;;;;;;8.53;75.41;101824.69;7392106;19;20021;-58
2023/03/20 02:01:56;;;;;;;15.15;6.82;;;;;;;8.44;75.59;101832.22;7390597;19;20007;-58
2023/03/20 02:04:27;;;;;;;14.40;6.75;;;;;;;8.45;75.76;101826.00;7389895;19;20003;-59
2023/03/20 02:06:53;;;;;;;12.38;6.60;;;;;;;8.51;75.63;101829.22;7390785;19;20463;-58
2023/03/20 02:09:18;;;;;;;16.50;7.65;;;;;;;8.46;75.65;101832.13;7392643;19;20006;-59
2023/03/20 02:11:45;;;;;;;13.25;7.53;;;;;;;8.42;75.85;101828.81;7390548;19;20491;-58
2023/03/20 02:14:12;;;;;;;13.90;7.28;;;;;;;8.42;75.92;101831.47;7390365;19;20003;-59
2023/03/20 02:16:37;;;;;;;16.00;8.13;;;;;;;8.38;76.20;101827.28;7390889;19;20037;-59
2023/03/20 02:19:07;;;;;;;13.95;7.13;;;;;;;8.32;76.26;101829.41;7391514;19;20412;-57
2023/03/20 02:21:51;;;;;;;13.80;7.40;;;;;;;8.30;76.06;101834.75;7390815;19;19994;-57
2023/03/20 02:24:44;;;;;;;12.15;6.93;;;;;;;8.27;76.01;101829.66;7391029;19;20002;-58
2023/03/20 02:27:28;;;;;;;13.43;7.10;;;;;;;8.29;76.19;101832.22;7391309;19;20462;-59
2023/03/20 02:30:08;;;;;;;12.05;6.78;;;;;;;8.28;76.19;101823.41;7390772;19;19995;-58
2023/03/20 02:32:40;;;;;;;13.18;6.55;;;;;;;8.30;76.14;101823.31;7390682;19;20015;-58
2023/03/20 02:35:27;;;;;;;12.95;6.95;;;;;;;8.31;76.00;101822.41;7390172;19;20050;-58
2023/03/20 02:38:03;;;;;;;12.55;6.95;;;;;;;8.30;76.14;101823.31;7389718;19;20030;-58
2023/03/20 02:40:28;;;;;;;13.02;6.72;;;;;;;8.35;75.68;101814.19;7390513;19;20006;-58
2023/03/20 02:43:03;;;;;;;12.25;6.13;;;;;;;8.35;75.61;101816.00;7390080;19;20462;-59
2023/03/20 02:45:38;;;;;;;11.90;6.28;;;;;;;8.30;75.19;101813.59;7389239;19;20013;-59
2023/03/20 02:48:09;;;;;;;11.27;5.90;;;;;;;8.34;74.75;101815.16;7390396;19;19999;-59
2023/03/20 02:50:45;;;;;;;11.15;6.07;;;;;;;8.28;74.95;101815.47;7390592;19;20012;-58
2023/03/20 02:53:27;;;;;;;11.32;5.82;;;;;;;8.30;74.81;101813.59;7390754;19;20005;-59
2023/03/20 02:56:09;;;;;;;10.32;5.38;;;;;;;8.28;74.73;101804.88;7390336;19;20009;-58
2023/03/20 02:58:49;;;;;;;11.18;5.55;;;;;;;8.27;74.56;101804.97;7388778;19;19999;-59
2023/03/20 03:01:23;;;;;;;11.65;5.75;;;;;;;8.27;74.62;101797.88;7388956;19;20425;-59
2023/03/20 03:04:07;;;;;;;11.40;5.80;;;;;;;8.27;74.48;101800.53;7389582;19;20644;-58
2023/03/20 03:06:37;;;;;;;11.18;6.07;;;;;;;8.30;74.33;101780.97;7389303;19;20336;-58
2023/03/20 03:09:10;;;;;;;11.13;5.32;;;;;;;8.30;74.28;101788.91;7388479;19;20006;-58
2023/03/20 03:11:42;;;;;;;10.95;5.50;;;;;;;8.31;74.04;101780.91;7388858;19;19999;-58
2023/03/20 03:14:16;;;;;;;9.60;5.15;;;;;;;8.29;74.01;101777.47;7387495;19;20014;-59
2023/03/20 03:16:44;;;;;;;10.77;5.40;;;;;;;8.28;74.07;101786.34;7389932;19;20014;-59
2023/03/20 03:19:17;;;;;;;11.40;5.57;;;;;;;8.27;73.70;101776.72;7397166;19;19998;-60
2023/03/20 03:21:46;;;;;;;11.23;5.80;;;;;;;8.17;73.98;101771.03;7395111;19;20007;-61
2023/03/20 03:24:30;;;;;;;10.10;5.30;;;;;;;8.13;73.81;101766.84;7396601;19;20002;-59
2023/03/20 03:27:03;;;;;;;10.57;5.57;;;;;;;8.17;73.66;101768.38;7397025;19;20007;-59
2023/03/20 03:29:34;;;;;;;10.20;5.38;;;;;;;8.17;74.00;101759.59;7397267;19;20006;-60
2023/03/20 03:32:02;;;;;;;10.68;5.38;;;;;;;8.18;73.76;101758.66;7392822;19;20389;-60
2023/03/20 03:34:28;;;;;;;11.00;5.63;;;;;;;8.17;73.43;101755.16;7396767;19;19994;-60
2023/03/20 03:37:06;;;;;;;11.55;6.10;;;;;;;8.17;73.58;101757.78;7397564;19;20006;-59
2023/03/20 03:39:48;;;;;;;11.30;5.60;;;;;;;8.18;73.53;101756.84;7397023;19;20014;-60
2023/03/20 03:42:38;;;;;;;11.10;4.90;;;;;;;8.19;73.52;101752.44;7394515;19;20002;-59
2023/03/20 03:45:09;;;;;;;12.18;6.22;;;;;;;8.16;73.85;101755.25;7392870;19;20054;-59
2023/03/20 03:47:43;;;;;;;11.10;5.85;;;;;;;8.20;73.83;101751.50;7396899;19;19994;-59
2023/03/20 03:50:15;;;;;;;12.45;5.82;;;;;;;8.15;73.82;101751.75;7395803;19;19994;-59
2023/03/20 03:52:43;;;;;;;11.88;5.82;;;;;;;8.13;73.96;101744.81;7393874;19;20011;-59
2023/03/20 03:55:24;;;;;;;12.98;6.40;;;;;;;8.18;73.92;101750.72;7389309;19;19998;-60
2023/03/20 03:57:57;;;;;;;11.27;5.75;;;;;;;8.16;73.69;101750.81;7394532;19;20009;-59
2023/03/20 04:00:25;;;;;;;11.48;5.78;;;;;;;8.07;74.22;101753.94;7397601;19;20002;-59
2023/03/20 04:02:53;;;;;;;11.18;6.00;;;;;;;8.06;74.37;101744.31;7396692;19;20026;-59
2023/03/20 04:05:20;;;;;;;12.20;6.22;;;;;;;8.01;74.74;101760.44;7393945;19;20455;-59
2023/03/20 04:07:51;;;;;;;11.32;6.10;;;;;;;8.02;74.70;101748.91;7395478;19;20026;-59
2023/03/20 04:10:17;;;;;;;12.65;6.25;;;;;;;8.05;74.83;101755.84;7395588;19;20002;-60
2023/03/20 04:12:44;;;;;;;12.50;6.93;;;;;;;7.96;74.86;101761.66;7395385;19;19993;-61
2023/03/20 04:15:14;;;;;;;12.02;6.57;;;;;;;8.05;74.92;101755.84;7393933;19;20010;-60
2023/03/20 04:17:40;;;;;;;13.93;7.18;;;;;;;8.10;74.59;101753.78;7393370;19;20329;-60
2023/03/20 04:20:07;;;;;;;14.75;7.32;;;;;;;8.13;74.50;101756.25;7394750;19;20065;-61
2023/03/20 04:22:33;;;;;;;13.75;7.15;;;;;;;8.07;74.51;101758.38;7395392;19;20062;-60
2023/03/20 04:25:06;;;;;;;13.32;6.90;;;;;;;8.13;74.78;101758.06;7393890;19;20066;-62
2023/03/20 04:27:32;;;;;;;13.13;7.13;;;;;;;8.07;74.90;101747.81;7391561;19;20031;-61
2023/03/20 04:29:58;;;;;;;13.25;6.97;;;;;;;8.05;74.98;101755.00;7393732;19;19998;-60
2023/03/20 04:32:23;;;;;;;13.35;7.13;;;;;;;8.11;74.70;101752.88;7392058;19;19995;-62
2023/03/20 04:34:49;;;;;;;12.77;7.05;;;;;;;8.19;74.79;101749.78;7394490;19;19990;-61
2023/03/20 04:37:15;;;;;;;14.85;7.90;;;;;;;8.13;74.68;101742.19;7394336;19;20336;-60
2023/03/20 04:39:43;;;;;;;14.75;7.97;;;;;;;8.09;75.11;101738.00;7392798;19;20003;-60
2023/03/20 04:42:10;;;;;;;14.82;7.90;;;;;;;8.10;75.36;101739.69;7388617;19;20498;-59
2023/03/20 04:44:36;;;;;;;11.73;6.97;;;;;;;8.11;75.38;101736.09;7393303;19;19999;-60
2023/03/20 04:47:01;;;;;;;14.77;7.93;;;;;;;8.08;75.57;101737.16;7394241;19;20006;-59
2023/03/20 04:49:27;;;;;;;13.48;7.47;;;;;;;8.09;75.26;101730.06;7393684;19;19991;-60
2023/03/20 04:51:54;;;;;;;13.88;7.25;;;;;;;8.14;75.31;101735.94;7392289;19;19999;-60
2023/03/20 04:54:20;;;;;;;14.18;7.30;;;;;;;8.14;75.57;101742.09;7391671;19;19998;-59
2023/03/20 04:56:45;;;;;;;13.82;8.27;;;;;;;8.14;75.24;101736.78;7394529;19;20002;-60
2023/03/20 04:59:11;;;;;;;14.25;7.63;;;;;;;8.03;75.69;101739.19;7393479;19;19999;-59
2023/03/20 05:01:36;;;;;;;15.48;8.02;;;;;;;8.04;75.77;101748.00;7391310;19;20328;-60
2023/03/20 05:04:02;;;;;;;15.65;8.68;;;;;;;8.01;75.90;101741.91;7393336;19;20467;-60
2023/03/20 05:06:28;;;;;;;14.60;8.77;;;;;;;8.01;75.89;101751.66;7388789;19;19999;-60
2023/03/20 05:08:53;;;;;;;15.95;8.77;;;;;;;8.06;75.89;101748.75;7392761;19;19998;-60
2023/03/20 05:11:19;;;;;;;15.38;8.45;;;;;;;8.13;75.46;101758.91;7392967;19;19995;-59
2023/03/20 05:13:44;;;;;;;15.48;9.13;;;;;;;8.14;75.64;101751.81;7391936;19;20011;-59
2023/03/20 05:16:10;;;;;;;14.20;8.00;;;;;;;8.12;75.46;101751.91;7392545;19;20017;-59
2023/03/20 05:18:35;;;;;;;15.55;8.38;;;;;;;8.03;76.09;101752.41;7393022;19;20003;-59
2023/03/20 05:21:01;;;;;;;14.65;7.40;;;;;;;8.04;75.96;101770.00;7391629;19;20059;-60
2023/03/20 05:23:27;;;;;;;16.30;8.77;;;;;;;8.09;75.95;101754.72;7390999;19;20403;-59
2023/03/20 05:25:53;;;;;;;14.85;7.88;;;;;;;8.08;75.88;101760.13;7389732;19;20005;-59
2023/03/20 05:28:18;;;;;;;16.10;9.20;;;;;;;8.13;75.91;101760.72;7391719;19;20400;-60
2023/03/20 05:30:44;;;;;;;16.80;8.63;;;;;;;8.10;75.77;101758.22;7389723;19;20006;-60
2023/03/20 05:33:09;;;;;;;14.52;8.35;;;;;;;8.10;75.94;101752.94;7392966;19;19994;-60
2023/03/20 05:35:35;;;;;;;14.63;8.30;;;;;;;8.01;76.04;101764.88;7391238;19;20420;-60
2023/03/20 05:38:00;;;;;;;15.65;8.02;;;;;;;8.02;76.05;101770.09;7392208;19;20111;-60
2023/03/20 05:40:26;;;;;;;15.68;8.23;;;;;;;8.09;75.88;101775.06;7389662;19;20006;-59
2023/03/20 05:42:51;;;;;;;13.68;7.93;;;;;;;8.05;75.87;101770.88;7390762;19;20006;-59
2023/03/20 05:45:17;;;;;;;14.98;8.05;;;;;;;8.08;75.92;101770.72;7390464;19;20045;-59
2023/03/20 05:47:43;;;;;;;17.25;9.05;;;;;;;8.12;75.77;101769.59;7391682;19;20021;-60
2023/03/20 05:50:10;;;;;;;16.27;8.63;;;;;;;8.12;75.70;101770.44;7391141;19;19998;-60
2023/03/20 05:52:35;;;;;;;16.38;8.77;;;;;;;8.14;75.29;101779.13;7391293;19;20076;-59
2023/03/20 05:55:01;;;;;;;16.70;8.50;;;;;;;8.13;75.60;101779.22;7391672;19;20007;-60
2023/03/20 05:57:26;;;;;;;15.48;8.95;;;;;;;8.25;75.08;101786.53;7391602;19;20015;-60
2023/03/20 05:59:52;;;;;;;17.13;8.43;;;;;;;8.16;75.48;101787.00;7391741;19;20002;-60
2023/03/20 06:02:17;;;;;;;17.08;9.32;;;;;;;8.18;75.76;101783.31;7390194;19;19994;-59
2023/03/20 06:04:43;;;;;;;17.30;8.80;;;;;;;8.22;75.58;101781.34;7388952;19;19998;-59
2023/03/20 06:07:08;;;;;;;16.45;8.82;;;;;;;8.20;75.57;101781.44;7391851;19;19999;-59
2023/03/20 06:09:34;;;;;;;16.15;9.50;;;;;;;8.14;75.74;101780.94;7390748;19;20483;-59
2023/03/20 06:11:59;;;;;;;17.15;9.27;;;;;;;8.17;75.57;101788.72;7388514;19;20455;-60
2023/03/20 06:14:25;;;;;;;18.00;9.80;;;;;;;8.14;76.07;101794.16;7389470;19;20002;-59
2023/03/20 06:16:52;;;;;;;17.92;9.57;;;;;;;8.19;75.94;101795.63;7389289;19;20439;-59
2023/03/20 06:19:20;;;;;;;18.50;9.13;;;;;;;8.26;75.17;101782.94;7391134;19;19999;-58
2023/03/20 06:21:47;;;;;;;18.05;9.25;;;;;;;8.27;74.89;101787.31;7390297;19;20002;-60
2023/03/20 06:24:12;;;;;;;17.70;8.77;;;;;;;8.24;74.82;101784.78;7391110;19;20003;-59
2023/03/20 06:26:38;;;;;;;16.70;8.98;;;;;;;8.27;74.71;101789.09;7390695;19;20014;-60
2023/03/20 06:29:03;;;;;;;16.83;8.68;;;;;;;8.35;74.45;101793.03;7390215;19;20493;-60
2023/03/20 06:31:29;;;;;;;16.15;8.77;;;;;;;8.38;74.25;101786.69;7389477;19;20079;-59
2023/03/20 06:33:55;;;;;;;17.10;8.40;;;;;;;8.33;74.17;101783.44;7390036;19;20483;-59
2023/03/20 06:36:21;;;;;;;15.90;8.52;;;;;;;8.32;74.22;101785.25;7389976;19;20021;-60
2023/03/20 06:38:46;;;;;;;15.88;8.05;;;;;;;8.36;73.97;101791.22;7390148;19;19999;-60
2023/03/20 06:41:12;;;;;;;15.55;8.63;;;;;;;8.36;73.83;101793.88;7389623;19;20502;-59
2023/03/20 06:43:38;;;;;;;17.85;8.27;;;;;;;8.25;73.90;101784.72;7390709;19;20050;-59
2023/03/20 06:46:05;;;;;;;17.25;8.27;;;;;;;8.35;73.68;101789.53;7387615;19;19991;-59
2023/03/20 06:48:31;;;;;;;14.98;8.68;;;;;;;8.43;73.43;101800.53;7390781;19;19999;-59
2023/03/20 06:50:57;;;;;;;15.07;8.60;;;;;;;8.39;73.05;101805.16;7390999;19;20002;-59
2023/03/20 06:53:23;;;;;;;16.30;8.63;;;;;;;8.42;72.47;101799.69;7398077;19;20327;-60
2023/03/20 06:55:50;;;;;;;17.15;8.38;;;;;;;8.46;71.84;101817.09;7396385;19;20339;-59
2023/03/20 06:58:16;;;;;;;17.77;8.05;;;;;;;8.38;72.16;101808.75;7398017;19;19999;-60
2023/03/20 07:00:43;;;;;;;14.27;8.18;;;;;;;8.48;71.11;101807.25;7395929;19;20515;-60
2023/03/20 07:03:09;;;;;;;15.07;7.90;;;;;;;8.49;71.10;101809.00;7398329;19;19994;-60
2023/03/20 07:05:34;;;;;;;16.30;9.38;;;;;;;8.51;71.10;101810.69;7394763;19;20074;-60
2023/03/20 07:08:00;;;;;;;19.70;8.75;;;;;;;8.44;70.89;101805.72;7389834;19;20015;-62
2023/03/20 07:10:27;;;;;;;17.10;8.32;;;;;;;8.44;71.07;101803.06;7397471;19;20022;-62
2023/03/20 07:12:52;;;;;;;15.10;7.70;;;;;;;8.49;70.70;101805.47;7399989;19;20014;-61
2023/03/20 07:15:18;;;;;;;17.83;7.90;;;;;;;8.48;70.78;101807.25;7396140;19;20151;-62
2023/03/20 07:17:43;;;;;;;16.65;8.30;;;;;;;8.56;70.10;101806.81;7394878;19;20006;-62
2023/03/20 07:20:10;;;;;;;14.40;7.93;;;;;;;8.49;70.15;101803.69;7394703;19;20495;-62
2023/03/20 07:22:36;;;;;;;16.23;8.15;;;;;;;8.55;70.03;101806.94;7396729;19;20002;-62
2023/03/20 07:25:02;;;;;;;19.88;8.48;;;;;;;8.59;69.89;101806.66;7396107;19;20002;-62
2023/03/20 07:27:27;;;;;;;16.15;8.10;;;;;;;8.59;69.56;101811.09;7396368;19;20006;-62
2023/03/20 07:29:53;;;;;;;16.15;7.53;;;;;;;8.52;69.64;101812.38;7396247;19;20324;-62
2023/03/20 07:32:19;;;;;;;13.23;7.57;;;;;;;8.49;69.88;101816.94;7396932;19;19995;-62
2023/03/20 07:34:46;;;;;;;15.00;8.13;;;;;;;8.55;69.24;101817.53;7395842;19;20046;-62
2023/03/20 07:37:12;;;;;;;14.43;7.80;;;;;;;8.53;69.27;101811.44;7395045;19;20017;-61
2023/03/20 07:39:37;;;;;;;15.30;8.45;;;;;;;8.51;68.91;101823.94;7396691;19;20473;-62
2023/03/20 07:42:03;;;;;;;16.73;8.57;;;;;;;8.52;68.69;101813.25;7396100;19;20502;-62
2023/03/20 07:44:29;;;;;;;16.23;7.32;;;;;;;8.59;68.34;101819.06;7395461;19;20002;-62
2023/03/20 07:46:54;;;;;;;14.85;8.13;;;;;;;8.47;68.34;101824.09;7395751;19;20066;-62
2023/03/20 07:49:20;;;;;;;14.27;7.93;;;;;;;8.53;68.03;101825.56;7391615;19;20022;-63
2023/03/20 07:51:47;;;;;;;13.63;7.43;;;;;;;8.52;67.55;101823.84;7397998;19;20597;-62
2023/03/20 07:54:13;;;;;;;16.15;7.07;;;;;;;8.46;67.41;101833.00;7395655;19;20003;-63
2023/03/20 07:56:39;;;;;;;16.13;8.15;;;;;;;8.52;67.53;101829.13;7394400;19;20006;-62
2023/03/20 07:59:05;;;;;;;14.68;7.13;;;;;;;8.58;67.43;101823.50;7391056;19;20010;-63
2023/03/20 08:01:31;;;;;;;14.85;7.88;;;;;;;8.56;67.39;101825.38;7395658;19;20001;-62
2023/03/20 08:03:56;;;;;;;15.18;6.70;;;;;;;8.67;66.90;101822.13;7393566;19;20487;-62
2023/03/20 08:06:22;;;;;;;12.75;6.63;;;;;;;8.66;66.61;101825.72;7393281;19;20066;-62
2023/03/20 08:08:50;;;;;;;13.52;7.38;;;;;;;8.74;66.46;101829.63;7392439;19;20370;-62
2023/03/20 08:11:16;;;;;;;16.88;7.20;;;;;;;8.80;66.07;101828.44;7395002;19;20006;-62
2023/03/20 08:13:41;;;;;;;13.85;6.28;;;;;;;8.81;65.94;101824.84;7394313;19;19999;-62
2023/03/20 08:16:07;;;;;;;15.43;6.95;;;;;;;8.86;65.89;101830.72;7394194;19;20426;-62
2023/03/20 08:18:33;;;;;;;17.13;7.13;;;;;;;8.85;65.25;101821.06;7392136;19;20554;-62
2023/03/20 08:20:59;;;;;;;12.18;6.28;;;;;;;8.88;65.51;101831.50;7395518;19;20081;-62
2023/03/20 08:23:25;;;;;;;13.25;6.50;;;;;;;8.80;65.48;101833.75;7394287;19;20700;-62
2023/03/20 08:25:52;;;;;;;14.18;6.53;;;;;;;8.68;65.84;101845.91;7392074;19;20006;-63
2023/03/20 08:28:19;;;;;;;13.73;7.13;;;;;;;8.69;65.80;101847.59;7393609;19;20026;-62
2023/03/20 08:30:44;;;;;;;13.27;6.75;;;;;;;8.81;65.18;101853.13;7394639;19;19995;-62
2023/03/20 08:33:10;;;;;;;13.95;7.32;;;;;;;8.76;65.09;101853.41;7395111;19;20002;-62
2023/03/20 08:35:36;;;;;;;16.13;7.00;;;;;;;8.76;65.56;101850.75;7391507;19;19999;-63
2023/03/20 08:38:02;;;;;;;15.10;6.63;;;;;;;8.85;65.30;101844.06;7393087;19;19990;-62
2023/03/20 08:40:28;;;;;;;13.93;6.72;;;;;;;8.94;64.95;101846.19;7391835;19;20001;-63
2023/03/20 08:42:54;;;;;;;15.18;7.25;;;;;;;8.90;64.31;101856.09;7393558;19;20014;-62
2023/03/20 08:45:19;;;;;;;15.18;6.70;;;;;;;8.94;64.53;101854.13;7390037;19;19995;-63
2023/03/20 08:47:48;;;;;;;17.25;6.60;;;;;;;9.08;64.14;101843.59;7393391;19;19999;-63
2023/03/20 08:50:15;;;;;;;14.88;7.05;;;;;;;9.15;63.68;101850.25;7391946;19;19995;-62
2023/03/20 08:52:42;;;;;;;14.75;6.93;;;;;;;9.14;63.63;101842.38;7392778;19;20113;-63
2023/03/20 08:55:13;;;;;;;12.70;7.40;;;;;;;9.08;63.56;101840.94;7391013;19;19995;-63
2023/03/20 08:57:39;;;;;;;14.50;6.72;;;;;;;9.18;63.27;101839.47;7390564;19;20458;-62
2023/03/20 09:00:14;;;;;;;14.75;6.20;;;;;;;9.19;62.95;101837.66;7393417;19;20010;-62
2023/03/20 09:02:41;;;;;;;13.73;6.40;;;;;;;9.13;62.91;101838.00;7393597;19;20007;-63
2023/03/20 09:05:07;;;;;;;15.52;6.75;;;;;;;9.23;62.05;101833.88;7392181;19;20003;-62
2023/03/20 09:07:32;;;;;;;14.63;6.45;;;;;;;9.36;61.66;101840.16;7392058;19;20025;-61
2023/03/20 09:09:58;;;;;;;16.23;6.60;;;;;;;9.40;61.52;101823.09;7393142;19;20054;-62
2023/03/20 09:12:23;;;;;;;14.18;6.35;;;;;;;9.26;61.64;101831.06;7392814;19;20469;-62
2023/03/20 09:14:49;;;;;;;11.32;5.60;;;;;;;9.14;60.81;101831.75;7392960;19;19995;-61
2023/03/20 09:17:15;;;;;;;14.90;6.20;;;;;;;9.22;60.91;101838.34;7390390;19;20003;-63
2023/03/20 09:19:43;;;;;;;13.73;5.65;;;;;;;9.51;60.23;101832.22;7393235;19;20497;-63
2023/03/20 09:22:12;;;;;;;14.07;6.28;;;;;;;9.73;59.94;101839.75;7392146;19;20013;-63
2023/03/20 09:24:37;;;;;;;10.55;5.72;;;;;;;9.70;60.00;101835.47;7391992;19;20009;-63
2023/03/20 09:27:03;;;;;;;13.60;5.63;;;;;;;9.71;59.77;101845.13;7391560;19;19999;-63
2023/03/20 09:29:28;;;;;;;14.68;6.25;;;;;;;9.67;59.32;101836.50;7392675;19;20483;-62
2023/03/20 09:31:54;;;;;;;9.90;5.43;;;;;;;9.55;59.89;101847.88;7392994;19;20016;-62
2023/03/20 09:34:19;;;;;;;12.20;5.55;;;;;;;9.51;60.00;101837.53;7392249;19;20027;-63
2023/03/20 09:36:51;;;;;;;15.13;5.95;;;;;;;9.59;59.63;101846.72;7389848;19;20447;-63
2023/03/20 09:39:17;;;;;;;10.25;5.13;;;;;;;9.62;59.65;101841.25;7390087;19;20025;-63
2023/03/20 09:41:50;;;;;;;14.02;5.55;;;;;;;9.59;59.20;101854.69;7392463;19;19998;-63
2023/03/20 09:44:49;;;;;;;10.15;5.35;;;;;;;9.63;58.92;101842.94;7390384;19;20007;-62
2023/03/20 09:47:34;;;;;;;11.80;5.25;;;;;;;9.81;57.92;101840.13;7392845;19;20006;-63
2023/03/20 09:50:24;;;;;;;10.43;5.00;;;;;;;9.87;57.90;101839.78;7391483;19;20070;-62
2023/03/20 09:52:56;;;;;;;11.35;5.03;;;;;;;9.82;58.13;101836.53;7391660;19;20006;-62
2023/03/20 09:55:36;;;;;;;11.95;5.45;;;;;;;10.03;58.23;101840.53;7390502;19;19998;-63
2023/03/20 09:58:09;;;;;;;13.40;5.55;;;;;;;9.99;58.26;101840.84;7391404;19;20030;-62
2023/03/20 10:00:35;;;;;;;11.73;5.60;;;;;;;9.97;58.42;101846.22;7391579;19;20008;-62
2023/03/20 10:03:26;;;;;;;12.95;5.85;;;;;;;10.02;57.62;101830.00;7392233;19;20236;-63
2023/03/20 10:05:58;;;;;;;13.25;5.32;;;;;;;10.07;57.56;101839.41;7387872;19;19999;-65
2023/03/20 10:08:32;;;;;;;13.38;5.63;;;;;;;10.03;57.41;101843.19;7389986;19;20014;-63
2023/03/20 10:11:22;;;;;;;13.35;6.30;;;;;;;9.86;57.05;101838.06;7390985;19;20002;-62
2023/03/20 10:14:02;;;;;;;12.25;5.82;;;;;;;9.81;56.92;101835.66;7391565;19;20014;-62
2023/03/20 10:16:31;;;;;;;13.02;5.05;;;;;;;9.80;57.71;101831.31;7388509;19;20025;-63
2023/03/20 10:19:27;;;;;;;10.23;4.82;;;;;;;9.76;57.11;101836.91;7389147;19;20014;-63
2023/03/20 10:21:59;;;;;;;12.00;5.60;;;;;;;9.64;57.32;101830.56;7390817;19;20489;-63
2023/03/20 10:24:31;;;;;;;13.35;5.25;;;;;;;9.70;57.78;101836.31;7389968;19;20066;-63
2023/03/20 10:27:09;;;;;;;12.25;5.03;;;;;;;9.81;56.69;101838.31;7388869;19;20010;-62
2023/03/20 10:29:59;;;;;;;12.10;4.80;;;;;;;9.84;57.15;101832.88;7389419;19;20008;-61
2023/03/20 10:32:33;;;;;;;12.15;5.00;;;;;;;10.07;56.40;101828.78;7390461;19;20010;-61
2023/03/20 10:35:14;;;;;;;12.30;4.45;;;;;;;10.14;54.79;101827.44;7389924;19;19995;-61
2023/03/20 10:37:58;;;;;;;10.93;4.70;;;;;;;10.17;55.14;101823.72;7389624;19;20007;-59
2023/03/20 10:40:28;;;;;;;12.45;4.88;;;;;;;10.20;56.08;101820.88;7390963;19;20007;-60
2023/03/20 10:43:23;;;;;;;12.48;4.80;;;;;;;10.04;56.29;101826.31;7390673;19;20006;-61
2023/03/20 10:46:04;;;;;;;10.27;4.45;;;;;;;9.79;55.20;101826.97;7387240;19;20040;-61
2023/03/20 10:48:30;;;;;;;12.32;4.30;;;;;;;10.00;55.63;101816.84;7389709;19;19998;-61
2023/03/20 10:50:59;;;;;;;12.50;4.53;;;;;;;10.35;55.12;101819.06;7390846;19;20013;-61
2023/03/20 10:53:30;;;;;;;11.23;4.05;;;;;;;10.49;54.12;101810.22;7390421;19;20024;-61
2023/03/20 10:56:00;;;;;;;10.52;4.20;;;;;;;10.60;53.72;101808.56;7389434;19;19995;-62
2023/03/20 10:58:30;;;;;;;7.45;3.60;;;;;;;10.59;53.91;101803.31;7388932;19;20142;-61
2023/03/20 11:00:58;;;;;;;10.32;4.10;;;;;;;10.48;54.12;101795.19;7390751;19;20034;-61
2023/03/20 11:03:29;;;;;;;11.95;4.80;;;;;;;10.52;54.31;101792.28;7388581;19;20002;-61
2023/03/20 11:06:11;;;;;;;10.07;4.60;;;;;;;10.43;54.29;101793.69;7387727;19;19998;-62
2023/03/20 11:08:41;;;;;;;8.48;3.85;;;;;;;10.46;54.23;101792.66;7387286;19;20014;-62
2023/03/20 11:11:07;;;;;;;11.45;4.00;;;;;;;10.57;54.19;101792.81;7390603;19;20002;-63
2023/03/20 11:13:41;;;;;;;10.93;5.10;;;;;;;10.60;53.67;101802.41;7389308;19;20010;-62
2023/03/20 11:16:18;;;;;;;12.90;4.65;;;;;;;10.78;53.01;101793.22;7388308;19;20508;-61
2023/03/20 11:18:44;;;;;;;11.23;3.72;;;;;;;10.83;53.17;101799.06;7388200;19;19999;-61
2023/03/20 11:21:24;;;;;;;11.77;4.35;;;;;;;10.92;52.60;101790.47;7389892;19;20054;-62
2023/03/20 11:23:51;;;;;;;9.40;3.42;;;;;;;10.82;53.14;101784.09;7389242;19;20001;-61
2023/03/20 11:26:38;;;;;;;10.18;4.25;;;;;;;10.72;51.46;101782.13;7387458;19;20008;-60
2023/03/20 11:29:28;;;;;;;11.13;4.35;;;;;;;10.71;52.14;101786.59;7386692;19;19999;-61
2023/03/20 11:31:54;;;;;;;11.85;4.40;;;;;;;10.68;52.95;101790.31;7388900;19;20001;-62
2023/03/20 11:34:25;;;;;;;9.80;3.88;;;;;;;10.68;52.62;101786.78;7389285;19;19998;-63
2023/03/20 11:36:59;;;;;;;11.13;3.80;;;;;;;10.63;51.98;101778.25;7388644;19;20058;-63